Time;durP1;ratioP1;P1;durP2;ratioP2;P2;SDS_P1;SDS_P2;PMS_P1;PMS_P2;Temp;Humidity;BMP_temperature;BMP_pressure;BME280_temperature;BME280_humidity;BME280_pressure;Samples;Min_cycle;Max_cycle;Signal;HPM_P1;HPM_P2
2021/04/12 00:02:00;;;;;;;3.50;1.98;;;6.60;99.90;;;;;;5055600;28;20221;-79
2021/04/12 00:04:35;;;;;;;4.75;3.13;;;6.10;99.90;;;;;;5056101;28;20301;-77
2021/04/12 00:07:07;;;;;;;5.43;4.00;;;6.10;99.90;;;;;;5044924;28;20695;-78
2021/04/12 00:09:38;;;;;;;4.80;3.38;;;6.00;99.90;;;;;;5033132;28;20313;-78
2021/04/12 00:12:10;;;;;;;3.55;2.33;;;5.80;99.90;;;;;;5043612;28;20294;-77
2021/04/12 00:14:42;;;;;;;4.90;3.10;;;6.10;99.90;;;;;;5053332;28;20708;-77
2021/04/12 00:17:14;;;;;;;4.20;2.35;;;5.90;99.90;;;;;;5051431;28;20206;-77
2021/04/12 00:19:45;;;;;;;4.88;3.00;;;6.10;99.90;;;;;;5051848;28;20226;-77
2021/04/12 00:22:17;;;;;;;4.57;3.60;;;5.90;99.90;;;;;;5032961;28;20257;-77
2021/04/12 00:24:50;;;;;;;5.22;3.28;;;5.80;99.90;;;;;;5046432;28;20209;-79
2021/04/12 00:27:22;;;;;;;3.95;2.70;;;5.90;99.90;;;;;;5055273;28;20688;-79
2021/04/12 00:29:54;;;;;;;4.25;2.80;;;5.60;99.90;;;;;;5054153;28;20294;-79
2021/04/12 00:32:28;;;;;;;5.70;2.58;;;5.70;99.90;;;;;;5054839;28;20289;-79
2021/04/12 00:35:01;;;;;;;5.45;3.63;;;5.70;99.90;;;;;;5056447;28;20194;-79
2021/04/12 00:37:34;;;;;;;5.43;4.00;;;5.50;99.90;;;;;;5059388;28;20206;-79
2021/04/12 00:40:14;;;;;;;3.95;2.05;;;5.50;99.90;;;;;;5058083;28;20214;-78
2021/04/12 00:43:01;;;;;;;5.70;4.13;;;5.60;99.90;;;;;;5037345;28;20291;-78
2021/04/12 00:45:59;;;;;;;4.40;2.50;;;5.50;99.90;;;;;;5056184;28;20374;-78
2021/04/12 00:48:59;;;;;;;6.18;3.70;;;5.60;99.90;;;;;;5065190;28;20237;-78
2021/04/12 00:51:36;;;;;;;5.03;3.15;;;5.60;99.90;;;;;;5038882;28;20226;-78
2021/04/12 00:54:16;;;;;;;5.55;3.92;;;5.50;99.90;;;;;;5064472;28;20210;-78
2021/04/12 00:56:49;;;;;;;7.25;4.20;;;5.50;99.90;;;;;;5044744;28;20408;-79
2021/04/12 00:59:27;;;;;;;5.07;2.75;;;5.60;99.90;;;;;;5054218;28;20225;-78
2021/04/12 01:02:04;;;;;;;7.85;3.00;;;5.50;99.90;;;;;;5062077;28;20230;-78
2021/04/12 01:04:47;;;;;;;6.13;4.10;;;5.30;99.90;;;;;;5039424;28;20265;-78
2021/04/12 01:07:44;;;;;;;4.60;2.25;;;5.20;99.90;;;;;;5033324;28;20568;-79
2021/04/12 01:10:39;;;;;;;6.93;3.90;;;5.20;99.90;;;;;;5034343;28;20221;-79
2021/04/12 01:13:38;;;;;;;4.55;2.95;;;5.40;99.90;;;;;;5045612;28;20262;-78
2021/04/12 01:16:29;;;;;;;6.47;4.30;;;5.20;99.90;;;;;;5050836;28;20218;-78
2021/04/12 01:19:34;;;;;;;7.22;4.07;;;5.30;99.90;;;;;;5052632;28;20307;-79
2021/04/12 01:22:38;;;;;;;7.57;3.00;;;5.20;99.90;;;;;;5053330;28;20233;-79
2021/04/12 01:25:47;;;;;;;6.25;4.50;;;5.20;99.90;;;;;;5033570;28;20244;-79
2021/04/12 01:28:52;;;;;;;5.43;4.07;;;5.30;99.90;;;;;;5040939;28;20230;-79
2021/04/12 01:31:45;;;;;;;7.20;4.00;;;5.20;99.90;;;;;;5047225;28;20681;-79
2021/04/12 01:34:39;;;;;;;4.25;2.13;;;5.20;99.90;;;;;;5052278;28;20665;-78
2021/04/12 01:37:24;;;;;;;6.80;5.13;;;4.90;99.90;;;;;;5057195;28;20245;-79
2021/04/12 01:40:05;;;;;;;6.25;3.92;;;4.90;99.90;;;;;;5056803;28;20203;-79
2021/04/12 01:42:39;;;;;;;7.70;4.78;;;5.10;99.90;;;;;;5058505;28;20191;-78
2021/04/12 01:45:23;;;;;;;7.72;5.43;;;4.80;99.90;;;;;;5056031;28;20292;-79
2021/04/12 01:47:59;;;;;;;6.57;3.88;;;5.00;99.90;;;;;;5060539;28;20265;-79
2021/04/12 01:50:30;;;;;;;8.18;5.82;;;5.00;99.90;;;;;;5057443;28;20202;-79
2021/04/12 01:53:23;;;;;;;6.07;4.03;;;5.00;99.90;;;;;;5061284;28;20226;-79
2021/04/12 01:56:32;;;;;;;7.15;5.00;;;5.10;99.90;;;;;;5055272;28;20225;-78
2021/04/12 01:59:14;;;;;;;7.65;5.70;;;4.90;99.90;;;;;;5029187;28;20328;-78
2021/04/12 02:02:02;;;;;;;4.35;2.83;;;5.10;99.90;;;;;;5051933;28;20363;-78
2021/04/12 02:04:45;;;;;;;6.60;4.75;;;4.90;99.90;;;;;;5055967;28;20210;-78
2021/04/12 02:07:32;;;;;;;6.35;4.85;;;5.00;99.90;;;;;;5055211;28;20213;-78
2021/04/12 02:10:41;;;;;;;7.50;5.40;;;4.80;99.90;;;;;;5051992;28;20218;-78
2021/04/12 02:13:28;;;;;;;5.57;3.38;;;4.70;99.90;;;;;;4979259;28;20209;-78
2021/04/12 02:16:06;;;;;;;11.43;5.75;;;4.90;99.90;;;;;;5054052;28;20210;-77
2021/04/12 02:18:59;;;;;;;6.93;5.55;;;4.90;99.90;;;;;;5056832;28;20225;-78
2021/04/12 02:21:38;;;;;;;5.80;4.13;;;5.10;99.90;;;;;;5058628;28;20231;-78
2021/04/12 02:24:09;;;;;;;7.25;5.82;;;5.10;99.90;;;;;;5042472;28;20278;-78
2021/04/12 02:26:54;;;;;;;5.82;3.50;;;5.10;99.90;;;;;;5054031;28;20250;-78
2021/04/12 02:29:33;;;;;;;8.65;5.82;;;5.30;99.90;;;;;;5056901;28;20305;-78
2021/04/12 02:32:17;;;;;;;7.85;5.10;;;5.20;99.90;;;;;;5045752;28;20274;-78
2021/04/12 02:34:48;;;;;;;7.85;5.70;;;5.10;99.90;;;;;;5051126;28;20244;-78
2021/04/12 02:37:39;;;;;;;7.28;5.07;;;5.10;99.90;;;;;;5057071;28;20210;-78
2021/04/12 02:40:26;;;;;;;7.65;5.22;;;5.10;99.90;;;;;;5056138;28;20213;-78
2021/04/12 02:43:06;;;;;;;6.40;4.05;;;5.30;99.90;;;;;;5056489;28;20420;-78
2021/04/12 02:45:45;;;;;;;9.07;5.50;;;5.00;99.90;;;;;;5039287;28;20584;-77
2021/04/12 02:48:34;;;;;;;8.95;6.82;;;4.90;99.90;;;;;;5053936;28;20226;-78
2021/04/12 02:51:13;;;;;;;9.25;6.38;;;4.90;99.90;;;;;;5054960;28;20251;-78
2021/04/12 02:54:07;;;;;;;5.60;3.92;;;5.10;99.90;;;;;;5057488;28;20276;-78
2021/04/12 02:57:09;;;;;;;9.43;5.40;;;4.70;99.90;;;;;;5055182;28;20538;-78
2021/04/12 02:59:59;;;;;;;6.13;3.58;;;4.80;99.90;;;;;;5052691;28;20309;-77
2021/04/12 03:02:52;;;;;;;8.60;5.10;;;5.00;99.90;;;;;;5050785;28;20258;-77
2021/04/12 03:05:36;;;;;;;10.50;7.55;;;4.70;99.90;;;;;;5067056;28;20221;-77
2021/04/12 03:08:39;;;;;;;9.13;5.80;;;4.70;99.90;;;;;;5071797;28;20243;-77
2021/04/12 03:11:45;;;;;;;8.85;6.28;;;4.80;99.90;;;;;;5035231;28;20274;-77
2021/04/12 03:14:43;;;;;;;8.63;6.38;;;5.10;99.90;;;;;;5060848;28;20206;-77
2021/04/12 03:17:25;;;;;;;7.70;4.70;;;5.20;99.90;;;;;;5066061;28;20230;-78
2021/04/12 03:20:16;;;;;;;7.85;6.10;;;5.10;99.90;;;;;;5039941;28;20207;-80
2021/04/12 03:23:11;;;;;;;8.95;5.50;;;5.10;99.90;;;;;;5050674;28;20230;-78
2021/04/12 03:26:01;;;;;;;8.52;5.70;;;4.90;99.90;;;;;;5055872;28;20206;-78
2021/04/12 03:28:55;;;;;;;10.90;6.60;;;5.00;99.90;;;;;;5055567;28;20277;-77
2021/04/12 03:31:56;;;;;;;9.68;5.78;;;5.10;99.90;;;;;;5040467;28;20282;-77
2021/04/12 03:34:29;;;;;;;9.45;5.68;;;5.10;99.90;;;;;;5034763;28;20226;-79
2021/04/12 03:37:25;;;;;;;10.15;5.57;;;4.90;99.90;;;;;;5046838;28;20217;-79
2021/04/12 03:39:57;;;;;;;5.35;3.47;;;4.70;99.90;;;;;;5054745;28;20626;-79
2021/04/12 03:42:51;;;;;;;9.43;6.10;;;4.40;99.90;;;;;;5056947;28;20234;-79
2021/04/12 03:45:29;;;;;;;9.98;5.38;;;4.80;99.90;;;;;;5057343;28;20203;-80
2021/04/12 03:48:25;;;;;;;6.47;3.30;;;4.60;99.90;;;;;;5037981;28;20226;-77
2021/04/12 03:51:14;;;;;;;9.10;6.30;;;4.60;99.90;;;;;;5035289;28;20581;-77
2021/04/12 03:53:59;;;;;;;7.40;4.30;;;4.60;99.90;;;;;;5056305;28;20289;-77
2021/04/12 03:56:57;;;;;;;11.15;6.20;;;4.80;99.90;;;;;;5058274;28;20726;-78
2021/04/12 03:59:34;;;;;;;8.27;5.35;;;5.00;99.90;;;;;;5051956;28;20254;-77
2021/04/12 04:02:29;;;;;;;8.05;5.47;;;5.00;99.90;;;;;;5055481;28;20222;-78
2021/04/12 04:05:18;;;;;;;5.88;4.05;;;4.80;99.90;;;;;;5055800;28;20206;-79
2021/04/12 04:08:15;;;;;;;8.88;6.15;;;4.90;99.90;;;;;;5058346;28;20273;-77
2021/04/12 04:11:01;;;;;;;10.48;7.00;;;4.70;99.90;;;;;;5055146;28;20206;-78
2021/04/12 04:13:45;;;;;;;10.43;7.03;;;4.80;99.90;;;;;;5054874;28;20270;-78
2021/04/12 04:16:22;;;;;;;10.02;7.20;;;4.90;99.90;;;;;;5066395;28;20343;-78
2021/04/12 04:18:54;;;;;;;9.20;5.30;;;4.90;99.90;;;;;;5064291;28;20231;-78
2021/04/12 04:21:51;;;;;;;10.65;7.82;;;5.00;99.90;;;;;;5060436;28;20257;-78
2021/04/12 04:24:59;;;;;;;11.63;7.30;;;5.00;99.90;;;;;;5056307;28;20303;-77
2021/04/12 04:27:54;;;;;;;11.27;7.90;;;4.70;99.90;;;;;;5048367;28;20255;-77
2021/04/12 04:30:37;;;;;;;13.00;7.10;;;5.00;99.90;;;;;;5036732;28;20207;-77
2021/04/12 04:33:13;;;;;;;7.18;4.82;;;4.80;99.90;;;;;;5050426;28;20260;-77
2021/04/12 04:36:21;;;;;;;10.70;6.88;;;4.80;99.90;;;;;;5050161;28;20690;-77
2021/04/12 04:39:09;;;;;;;11.00;7.60;;;4.80;99.90;;;;;;5020291;28;20226;-78
2021/04/12 04:41:56;;;;;;;10.95;6.70;;;4.80;99.90;;;;;;5049701;28;20283;-78
2021/04/12 04:44:54;;;;;;;8.93;6.28;;;4.90;99.90;;;;;;5051346;28;20211;-78
2021/04/12 04:47:54;;;;;;;10.27;6.38;;;4.80;99.90;;;;;;5034582;28;20665;-78
2021/04/12 04:50:51;;;;;;;10.93;6.80;;;4.90;99.90;;;;;;5038570;28;20209;-79
2021/04/12 04:53:54;;;;;;;10.93;5.85;;;5.10;99.90;;;;;;5045408;28;20202;-78
2021/04/12 04:56:27;;;;;;;8.35;6.22;;;4.90;99.90;;;;;;4985912;28;20214;-78
2021/04/12 04:59:26;;;;;;;6.75;4.20;;;4.80;99.90;;;;;;5033330;28;20227;-78
2021/04/12 05:02:20;;;;;;;8.75;5.60;;;4.60;99.90;;;;;;5051901;28;20312;-78
2021/04/12 05:05:35;;;;;;;7.22;5.30;;;4.60;99.90;;;;;;5054157;28;20207;-78
2021/04/12 05:08:53;;;;;;;8.00;5.30;;;4.70;99.90;;;;;;5052425;28;20313;-78
2021/04/12 05:12:09;;;;;;;9.70;5.82;;;4.50;99.90;;;;;;5052465;28;20209;-78
2021/04/12 05:14:48;;;;;;;9.10;6.32;;;4.60;99.90;;;;;;5028028;28;20241;-77
2021/04/12 05:17:33;;;;;;;8.25;5.63;;;4.60;99.90;;;;;;5051342;28;20271;-77
2021/04/12 05:20:30;;;;;;;9.25;6.13;;;4.60;99.90;;;;;;5034261;28;20226;-77
2021/04/12 05:23:26;;;;;;;10.68;5.88;;;4.60;99.90;;;;;;5036627;28;20198;-78
2021/04/12 05:26:18;;;;;;;9.77;6.40;;;4.40;99.90;;;;;;5035173;28;20237;-78
2021/04/12 05:29:28;;;;;;;10.52;6.38;;;4.40;99.90;;;;;;5049227;28;20226;-77
2021/04/12 05:32:16;;;;;;;9.43;6.82;;;4.40;99.90;;;;;;5052569;28;20230;-78
2021/04/12 05:35:07;;;;;;;8.90;5.53;;;4.40;99.90;;;;;;5056436;28;20221;-77
2021/04/12 05:38:00;;;;;;;11.88;7.00;;;4.20;99.90;;;;;;5051056;28;20209;-78
2021/04/12 05:40:40;;;;;;;9.98;7.50;;;4.30;99.90;;;;;;5005191;28;20215;-78
2021/04/12 05:43:30;;;;;;;9.23;6.57;;;4.20;99.90;;;;;;5048893;28;20266;-78
2021/04/12 05:46:14;;;;;;;10.25;6.53;;;4.40;99.90;;;;;;5053097;28;20210;-78
2021/04/12 05:49:20;;;;;;;8.02;5.93;;;4.30;99.90;;;;;;5049494;28;20237;-78
2021/04/12 05:52:28;;;;;;;10.40;7.13;;;4.30;99.90;;;;;;5050242;28;20261;-78
2021/04/12 05:55:09;;;;;;;11.15;8.30;;;4.30;99.90;;;;;;4994523;28;20650;-77
2021/04/12 05:58:02;;;;;;;10.95;6.80;;;4.30;99.90;;;;;;5049514;28;20224;-78
2021/04/12 06:00:37;;;;;;;10.35;8.10;;;4.60;99.90;;;;;;5051524;28;20667;-79
2021/04/12 06:03:19;;;;;;;10.45;7.70;;;4.70;99.90;;;;;;5052161;28;20334;-78
2021/04/12 06:06:23;;;;;;;14.73;10.13;;;4.60;99.90;;;;;;5051418;28;20217;-78
2021/04/12 06:09:03;;;;;;;11.55;8.38;;;4.60;99.90;;;;;;5044930;28;20340;-78
2021/04/12 06:11:51;;;;;;;13.63;9.82;;;4.90;99.90;;;;;;5051386;28;20629;-77
2021/04/12 06:14:30;;;;;;;11.63;8.57;;;4.90;99.90;;;;;;5054772;28;20217;-79
2021/04/12 06:17:23;;;;;;;11.55;8.85;;;5.10;99.90;;;;;;5054164;28;20206;-80
2021/04/12 06:20:19;;;;;;;12.07;8.88;;;5.20;99.90;;;;;;5051516;28;20265;-77
2021/04/12 06:23:34;;;;;;;16.58;8.95;;;5.20;99.90;;;;;;5029748;28;20653;-80
2021/04/12 06:26:41;;;;;;;13.10;8.65;;;5.30;99.90;;;;;;5042449;28;20207;-80
2021/04/12 06:29:24;;;;;;;12.27;8.88;;;5.10;99.90;;;;;;5052390;28;20257;-77
2021/04/12 06:32:22;;;;;;;12.70;8.75;;;5.10;99.90;;;;;;5052632;28;20881;-79
2021/04/12 06:35:15;;;;;;;10.63;8.30;;;5.40;99.90;;;;;;5035279;28;20300;-78
2021/04/12 06:38:18;;;;;;;12.05;8.68;;;5.50;99.90;;;;;;5058346;28;20229;-78
2021/04/12 06:41:14;;;;;;;13.57;8.50;;;5.60;99.90;;;;;;5056588;28;20240;-77
2021/04/12 06:44:22;;;;;;;11.27;8.20;;;5.70;99.90;;;;;;5054873;28;20203;-78
2021/04/12 06:47:40;;;;;;;13.10;9.30;;;5.80;99.90;;;;;;5042852;28;20207;-78
2021/04/12 06:50:24;;;;;;;10.10;7.80;;;5.80;99.90;;;;;;5049050;28;20218;-77
2021/04/12 06:53:32;;;;;;;13.18;8.90;;;5.60;99.90;;;;;;5054641;28;20344;-78
2021/04/12 06:56:41;;;;;;;12.95;9.20;;;5.70;99.90;;;;;;5062598;28;20233;-78
2021/04/12 06:59:47;;;;;;;15.10;9.30;;;5.90;99.90;;;;;;5047785;28;20306;-80
2021/04/12 07:02:50;;;;;;;11.20;8.65;;;6.10;99.90;;;;;;5048380;28;20665;-74
2021/04/12 07:05:40;;;;;;;12.88;8.23;;;5.90;99.90;;;;;;5055388;28;20293;-78
2021/04/12 07:08:32;;;;;;;11.88;7.95;;;6.00;99.90;;;;;;5052716;28;20248;-78
2021/04/12 07:11:29;;;;;;;13.95;7.93;;;5.70;99.90;;;;;;5055990;28;20256;-79
2021/04/12 07:14:28;;;;;;;12.75;8.10;;;5.90;99.90;;;;;;5056595;28;20682;-80
2021/04/12 07:17:06;;;;;;;14.57;8.50;;;5.80;99.90;;;;;;5031140;28;20618;-78
2021/04/12 07:20:12;;;;;;;13.27;8.70;;;5.90;99.90;;;;;;5066360;28;20222;-79
2021/04/12 07:23:37;;;;;;;15.85;8.45;;;6.00;99.90;;;;;;5053494;28;20221;-78
2021/04/12 07:26:26;;;;;;;12.93;8.95;;;6.00;99.90;;;;;;4992596;28;20201;-77
2021/04/12 07:29:35;;;;;;;12.88;8.18;;;5.90;99.90;;;;;;4980656;28;20316;-77
2021/04/12 07:32:25;;;;;;;14.77;9.43;;;5.90;99.90;;;;;;5050386;28;20201;-77
2021/04/12 07:35:22;;;;;;;14.52;8.85;;;6.00;99.90;;;;;;5036906;28;20208;-78
2021/04/12 07:38:55;;;;;;;13.68;10.25;;;6.10;99.90;;;;;;5049539;28;20230;-78
2021/04/12 07:41:48;;;;;;;11.87;8.10;;;6.00;99.90;;;;;;5053383;28;20607;-79
2021/04/12 07:44:48;;;;;;;12.45;9.10;;;6.00;99.90;;;;;;5053893;28;20453;-76
2021/04/12 07:47:57;;;;;;;12.90;9.88;;;6.10;99.90;;;;;;5049205;28;20218;-76
2021/04/12 07:51:05;;;;;;;12.45;10.05;;;6.30;99.90;;;;;;5041940;28;20203;-78
2021/04/12 07:54:09;;;;;;;13.25;9.77;;;6.50;99.90;;;;;;5053930;28;20558;-77
2021/04/12 07:57:11;;;;;;;21.55;11.45;;;6.40;99.90;;;;;;5055318;28;20211;-79
2021/04/12 08:00:19;;;;;;;14.85;10.35;;;6.20;99.90;;;;;;5054977;28;20309;-80
2021/04/12 08:03:36;;;;;;;14.90;10.65;;;6.60;99.90;;;;;;5036514;28;20230;-79
2021/04/12 08:06:32;;;;;;;14.45;9.90;;;6.40;99.90;;;;;;5039558;28;20754;-79
2021/04/12 08:09:49;;;;;;;14.57;10.43;;;6.60;99.90;;;;;;5038362;28;20747;-79
2021/04/12 08:12:53;;;;;;;15.57;11.55;;;6.70;99.90;;;;;;4966896;28;20516;-79
2021/04/12 08:15:58;;;;;;;18.73;12.00;;;6.60;99.90;;;;;;5050312;28;20198;-79
2021/04/12 08:18:48;;;;;;;16.50;10.50;;;6.60;99.90;;;;;;5020588;28;20230;-80
2021/04/12 08:21:41;;;;;;;14.70;11.68;;;6.60;99.90;;;;;;5053808;28;20230;-80
2021/04/12 08:24:45;;;;;;;14.25;11.23;;;6.90;99.90;;;;;;5055757;28;20217;-80
2021/04/12 08:27:36;;;;;;;14.95;11.93;;;7.00;99.90;;;;;;5034322;28;20202;-81
2021/04/12 08:30:48;;;;;;;16.52;12.35;;;6.60;99.90;;;;;;5032076;28;20683;-80
2021/04/12 08:34:09;;;;;;;17.53;13.20;;;6.80;99.90;;;;;;5034279;28;20219;-80
2021/04/12 08:37:05;;;;;;;19.10;12.32;;;7.10;99.90;;;;;;5034879;28;20449;-80
2021/04/12 08:39:58;;;;;;;14.90;11.80;;;7.00;99.90;;;;;;5027209;28;20368;-81
2021/04/12 08:42:58;;;;;;;15.98;11.52;;;7.10;99.90;;;;;;4996514;28;20525;-79
2021/04/12 08:46:13;;;;;;;11.55;7.60;;;6.70;99.90;;;;;;5032597;28;20211;-78
2021/04/12 08:49:04;;;;;;;18.42;11.90;;;6.80;99.90;;;;;;5031152;28;21359;-78
2021/04/12 08:52:09;;;;;;;16.20;10.75;;;6.70;99.90;;;;;;5032226;28;20306;-79
2021/04/12 08:55:20;;;;;;;14.00;10.38;;;6.80;99.90;;;;;;5029589;28;20293;-78
2021/04/12 08:58:31;;;;;;;16.17;10.95;;;6.70;99.90;;;;;;5031685;28;20254;-78
2021/04/12 09:01:26;;;;;;;37.30;24.27;;;6.80;99.90;;;;;;5034004;28;20211;-79
2021/04/12 09:04:47;;;;;;;12.83;9.20;;;7.00;99.90;;;;;;5035066;28;20469;-79
2021/04/12 09:07:46;;;;;;;11.30;9.00;;;6.90;99.90;;;;;;5031380;28;20458;-78
2021/04/12 09:10:46;;;;;;;13.95;10.05;;;6.80;99.90;;;;;;5015551;28;20944;-78
2021/04/12 09:13:58;;;;;;;11.07;8.15;;;6.90;99.90;;;;;;5033287;28;20280;-77
2021/04/12 09:16:36;;;;;;;14.18;10.43;;;7.00;99.90;;;;;;4988291;28;20580;-76
2021/04/12 09:19:41;;;;;;;15.85;9.57;;;7.00;99.90;;;;;;4987827;28;20311;-75
2021/04/12 09:22:39;;;;;;;15.90;9.30;;;6.80;99.90;;;;;;5021985;28;20229;-75
2021/04/12 09:25:35;;;;;;;11.73;7.87;;;7.20;99.90;;;;;;5046440;28;20461;-78
2021/04/12 09:28:26;;;;;;;11.40;7.50;;;7.30;99.90;;;;;;5039844;28;20448;-78
2021/04/12 09:31:22;;;;;;;12.40;8.15;;;7.50;99.90;;;;;;5030795;28;20215;-77
2021/04/12 09:34:41;;;;;;;10.20;7.80;;;7.10;99.90;;;;;;5045525;28;20272;-78
2021/04/12 09:38:12;;;;;;;9.90;8.03;;;7.30;99.90;;;;;;5053960;22;20502;-86
2021/04/12 09:41:08;;;;;;;9.40;7.13;;;7.60;99.90;;;;;;5037955;28;20512;-90
2021/04/12 09:44:04;;;;;;;9.55;6.53;;;7.70;99.90;;;;;;5037426;28;20520;-88
2021/04/12 09:47:12;;;;;;;9.43;6.87;;;7.40;99.90;;;;;;5010345;28;20309;-87
2021/04/12 09:50:23;;;;;;;7.57;6.77;;;7.50;99.90;;;;;;5038388;28;20892;-88
2021/04/12 09:53:02;;;;;;;10.02;6.80;;;7.60;99.90;;;;;;5010817;28;20417;-89
2021/04/12 09:55:52;;;;;;;9.52;6.72;;;7.70;99.90;;;;;;5019775;28;20315;-80
2021/04/12 09:58:57;;;;;;;11.33;7.70;;;7.80;99.90;;;;;;5013907;28;20197;-89
2021/04/12 10:01:46;;;;;;;8.30;6.20;;;7.60;99.90;;;;;;5001891;28;20456;-89
2021/04/12 10:05:10;;;;;;;12.30;5.30;;;7.70;99.90;;;;;;5043298;28;20418;-89
2021/04/12 10:08:01;;;;;;;8.03;5.20;;;7.90;99.90;;;;;;4962133;29;20245;-89
2021/04/12 10:10:33;;;;;;;8.68;5.15;;;7.60;99.90;;;;;;5000793;28;20490;-89
2021/04/12 10:13:26;;;;;;;9.18;5.22;;;7.40;99.90;;;;;;5012574;28;20264;-89
2021/04/12 10:16:20;;;;;;;8.00;5.55;;;7.50;99.90;;;;;;4986740;28;20232;-89
2021/04/12 10:19:07;;;;;;;10.77;4.93;;;7.40;99.90;;;;;;4998791;28;20212;-90
2021/04/12 10:21:44;;;;;;;8.63;5.00;;;7.40;99.90;;;;;;4998733;28;20281;-88
2021/04/12 10:24:18;;;;;;;10.53;4.90;;;7.50;99.90;;;;;;5006018;28;20450;-87
2021/04/12 10:26:47;;;;;;;5.60;4.37;;;7.70;99.90;;;;;;5026794;28;20537;-87
2021/04/12 10:29:20;;;;;;;4.93;2.80;;;7.50;99.90;;;;;;5031984;28;20518;-87
2021/04/12 10:31:54;;;;;;;10.93;4.60;;;7.60;99.90;;;;;;5024485;28;20438;-88
2021/04/12 10:34:28;;;;;;;6.40;3.87;;;8.00;99.90;;;;;;5032562;28;20486;-87
2021/04/12 10:37:07;;;;;;;5.53;3.50;;;8.10;99.30;;;;;;5031661;28;20738;-85
2021/04/12 10:39:39;;;;;;;8.07;4.03;;;8.20;99.20;;;;;;5031022;28;20505;-86
2021/04/12 10:42:32;;;;;;;5.83;3.20;;;8.30;96.90;;;;;;5020753;28;20524;-87
2021/04/12 10:45:11;;;;;;;5.43;3.70;;;8.60;95.50;;;;;;5020645;28;20520;-87
2021/04/12 10:47:56;;;;;;;5.50;3.53;;;8.60;95.70;;;;;;5021107;28;20518;-87
2021/04/12 10:50:32;;;;;;;7.37;4.00;;;9.00;95.80;;;;;;5018599;28;20504;-88
2021/04/12 10:53:37;;;;;;;6.10;3.20;;;9.00;95.40;;;;;;5020127;28;20518;-87
2021/04/12 10:56:09;;;;;;;5.77;2.63;;;9.20;93.80;;;;;;5018937;28;20455;-87
2021/04/12 10:59:12;;;;;;;6.43;3.67;;;8.80;92.20;;;;;;5018493;28;20482;-87
2021/04/12 11:01:43;;;;;;;6.80;3.13;;;8.80;92.50;;;;;;5007005;28;20491;-88
2021/04/12 11:04:35;;;;;;;6.17;2.77;;;8.90;92.60;;;;;;5018970;28;20454;-88
2021/04/12 11:07:13;;;;;;;4.83;2.80;;;8.80;91.80;;;;;;5018840;28;20475;-86
2021/04/12 11:09:49;;;;;;;5.47;2.90;;;8.50;93.40;;;;;;5037042;28;20451;-87
2021/04/12 11:12:47;;;;;;;6.70;3.23;;;7.70;95.30;;;;;;5028988;28;20546;-89
2021/04/12 11:15:24;;;;;;;7.43;3.90;;;7.80;95.90;;;;;;5017411;28;20545;-87
2021/04/12 11:17:58;;;;;;;6.13;3.53;;;7.70;96.60;;;;;;5016675;28;20546;-85
2021/04/12 11:20:35;;;;;;;4.82;3.00;;;7.70;96.80;;;;;;5022947;28;20464;-87
2021/04/12 11:23:07;;;;;;;8.50;3.63;;;7.80;96.50;;;;;;5028164;28;20215;-88
2021/04/12 11:25:47;;;;;;;4.70;3.17;;;8.00;97.10;;;;;;5019807;28;20554;-89
2021/04/12 11:28:21;;;;;;;5.80;3.23;;;8.40;96.90;;;;;;5019967;28;20445;-88
2021/04/12 11:30:54;;;;;;;4.60;2.80;;;8.40;95.10;;;;;;5020321;28;20525;-89
2021/04/12 11:33:33;;;;;;;4.20;2.20;;;8.60;93.80;;;;;;5020798;28;20451;-80
2021/04/12 11:36:10;;;;;;;6.43;2.77;;;8.30;92.30;;;;;;5020950;28;20513;-81
2021/04/12 11:38:42;;;;;;;5.40;2.53;;;8.60;92.70;;;;;;5020766;28;20727;-87
2021/04/12 11:41:14;;;;;;;5.27;3.00;;;8.70;93.20;;;;;;5018204;28;20486;-87
2021/04/12 11:43:46;;;;;;;10.83;2.90;;;8.70;93.40;;;;;;5019208;28;20474;-86
2021/04/12 11:46:33;;;;;;;5.40;3.53;;;8.70;93.60;;;;;;5019974;28;20557;-89
2021/04/12 11:49:08;;;;;;;7.60;2.80;;;8.50;92.60;;;;;;5018915;28;20504;-88
2021/04/12 11:51:48;;;;;;;7.73;3.03;;;8.50;93.00;;;;;;5020224;28;20473;-90
2021/04/12 11:54:20;;;;;;;6.57;2.70;;;8.70;92.40;;;;;;5019744;28;20573;-80
2021/04/12 11:56:54;;;;;;;6.10;2.53;;;8.90;91.70;;;;;;5040033;28;20528;-89
2021/04/12 11:59:42;;;;;;;5.80;2.60;;;9.20;90.80;;;;;;5037266;28;20449;-88
2021/04/12 12:02:21;;;;;;;4.80;2.43;;;9.30;88.70;;;;;;5018709;28;20472;-91
2021/04/12 12:04:54;;;;;;;4.60;2.77;;;9.60;88.50;;;;;;5015765;28;20495;-90
2021/04/12 12:07:33;;;;;;;4.30;2.63;;;9.60;86.60;;;;;;4998545;28;20463;-89
2021/04/12 12:10:11;;;;;;;7.43;2.57;;;9.70;85.60;;;;;;5005433;28;20929;-89
2021/04/12 12:12:53;;;;;;;5.53;2.20;;;9.80;83.70;;;;;;5019607;28;20591;-87
2021/04/12 12:15:28;;;;;;;4.10;2.20;;;9.70;82.40;;;;;;5019684;28;20817;-90
2021/04/12 12:18:07;;;;;;;6.57;2.83;;;9.40;83.20;;;;;;5017053;28;20417;-88
2021/04/12 12:20:47;;;;;;;6.00;2.43;;;9.20;84.40;;;;;;5019008;28;20925;-90
2021/04/12 12:23:35;;;;;;;4.70;2.47;;;8.90;85.70;;;;;;5015628;28;20477;-90
2021/04/12 12:26:05;;;;;;;4.40;2.37;;;8.90;86.60;;;;;;5017331;28;20590;-89
2021/04/12 12:28:42;;;;;;;6.80;3.00;;;8.60;88.30;;;;;;5019401;28;20488;-89
2021/04/12 12:34:07;;;;;;;4.40;2.80;;;8.50;89.30;;;;;;5025772;28;20522;-89
2021/04/12 12:36:44;;;;;;;5.17;2.27;;;8.40;90.10;;;;;;5020833;28;20536;-90
2021/04/12 12:39:16;;;;;;;5.70;2.23;;;8.30;88.20;;;;;;5025198;28;20473;-88
2021/04/12 12:41:45;;;;;;;3.60;2.47;;;8.20;87.40;;;;;;5026260;28;20465;-89
2021/04/12 12:44:17;;;;;;;5.37;2.50;;;8.30;88.10;;;;;;5031630;28;20456;-88
2021/04/12 12:46:45;;;;;;;5.10;1.90;;;8.70;86.10;;;;;;5034233;28;20551;-88
2021/04/12 12:49:18;;;;;;;5.93;2.30;;;8.90;84.90;;;;;;5020351;28;20468;-84
2021/04/12 12:51:50;;;;;;;6.07;3.27;;;9.10;83.00;;;;;;5019929;28;20457;-83
2021/04/12 12:54:26;;;;;;;4.60;2.30;;;9.00;82.10;;;;;;5021459;28;20422;-79
2021/04/12 12:57:36;;;;;;;4.17;2.00;;;9.30;81.70;;;;;;5025040;28;20493;-88
2021/04/12 13:00:23;;;;;;;5.40;1.80;;;9.60;76.20;;;;;;5023891;28;20428;-89
2021/04/12 13:02:50;;;;;;;3.80;1.80;;;9.80;71.90;;;;;;5020529;28;20445;-89
2021/04/12 13:05:31;;;;;;;4.10;1.80;;;10.00;70.80;;;;;;5018228;28;20729;-89
2021/04/12 13:11:41;;;;;;;4.60;2.13;;;10.10;72.70;;;;;;5020103;28;20426;-88
2021/04/12 13:14:14;;;;;;;4.03;2.13;;;10.40;72.40;;;;;;5018130;28;20575;-89
2021/04/12 13:17:04;;;;;;;3.70;1.50;;;10.30;71.40;;;;;;5018907;28;20515;-88
2021/04/12 13:19:50;;;;;;;4.00;1.50;;;10.50;70.80;;;;;;5019689;28;20963;-89
2021/04/12 13:22:30;;;;;;;4.17;1.70;;;9.80;74.00;;;;;;5019921;28;20630;-89
2021/04/12 13:25:25;;;;;;;2.87;1.00;;;9.70;72.10;;;;;;5020519;28;20447;-89
2021/04/12 13:28:00;;;;;;;5.30;1.97;;;9.60;72.90;;;;;;5029540;28;20443;-89
2021/04/12 13:30:54;;;;;;;3.60;1.60;;;9.60;73.30;;;;;;5033788;28;20543;-89
2021/04/12 13:33:33;;;;;;;3.90;1.47;;;9.70;71.70;;;;;;5021752;28;20475;-88
2021/04/12 13:36:10;;;;;;;3.80;1.83;;;9.40;72.30;;;;;;5024905;28;20465;-89
2021/04/12 13:38:57;;;;;;;4.73;1.77;;;9.50;71.00;;;;;;5033824;28;20466;-88
2021/04/12 13:44:54;;;;;;;4.27;2.10;;;9.60;72.90;;;;;;4964045;29;20463;-88
2021/04/12 13:47:45;;;;;;;4.53;1.87;;;9.90;73.10;;;;;;4979826;28;20478;-89
2021/04/12 13:50:34;;;;;;;5.13;1.97;;;10.10;70.40;;;;;;5031223;28;20448;-89
2021/04/12 13:53:10;;;;;;;3.90;1.80;;;10.20;69.70;;;;;;5037900;28;20500;-89
2021/04/12 13:55:50;;;;;;;3.53;1.73;;;10.10;69.50;;;;;;5039069;28;20456;-89
2021/04/12 13:58:30;;;;;;;5.10;2.03;;;10.20;70.60;;;;;;5042734;28;20512;-89
2021/04/12 14:01:11;;;;;;;3.20;1.60;;;10.20;69.60;;;;;;5046045;28;20428;-88
2021/04/12 14:03:57;;;;;;;5.03;2.10;;;10.30;70.00;;;;;;5042067;28;20442;-89
2021/04/12 14:06:28;;;;;;;3.97;2.00;;;10.20;69.70;;;;;;5040422;28;20480;-90
2021/04/12 14:08:59;;;;;;;6.20;2.23;;;10.00;71.00;;;;;;5041993;28;20859;-88
2021/04/12 14:11:32;;;;;;;3.67;1.47;;;9.90;73.90;;;;;;5040960;28;20442;-90
2021/04/12 14:14:06;;;;;;;4.53;2.30;;;9.50;74.90;;;;;;5040311;28;20441;-90
2021/04/12 14:16:37;;;;;;;5.30;1.90;;;9.40;77.20;;;;;;5041916;28;20469;-89
2021/04/12 14:19:09;;;;;;;4.83;2.00;;;9.50;77.00;;;;;;5040610;28;20820;-89
2021/04/12 14:22:13;;;;;;;3.27;1.90;;;9.50;77.50;;;;;;5039540;28;20457;-90
2021/04/12 14:25:08;;;;;;;5.70;2.40;;;9.20;77.70;;;;;;5041428;28;20486;-89
2021/04/12 14:27:55;;;;;;;5.60;2.20;;;9.30;78.40;;;;;;5042574;28;20468;-89
2021/04/12 14:30:29;;;;;;;3.77;2.27;;;9.40;79.00;;;;;;5003934;28;20448;-88
2021/04/12 14:33:04;;;;;;;4.50;2.97;;;9.20;79.30;;;;;;5003625;28;20421;-89
2021/04/12 14:35:44;;;;;;;4.73;2.13;;;9.10;80.10;;;;;;5010264;28;20464;-88
2021/04/12 14:38:28;;;;;;;3.90;2.10;;;9.20;80.50;;;;;;5028346;28;20457;-88
2021/04/12 14:41:13;;;;;;;4.07;2.23;;;9.30;79.40;;;;;;5042554;28;20457;-88
2021/04/12 14:43:59;;;;;;;3.47;2.20;;;9.40;78.40;;;;;;5042705;28;20463;-88
2021/04/12 14:46:46;;;;;;;5.53;2.03;;;9.50;78.10;;;;;;5042628;28;20521;-88
2021/04/12 14:49:25;;;;;;;4.60;2.57;;;9.80;77.50;;;;;;5045492;28;20472;-88
2021/04/12 14:51:56;;;;;;;3.97;2.27;;;9.90;75.90;;;;;;5039777;28;20525;-81
2021/04/12 14:54:27;;;;;;;4.43;2.40;;;10.10;74.50;;;;;;5031452;28;20421;-79